createdAt,value
2018-07-12T00:01:23.294Z,99.90
2018-07-12T00:03:50.617Z,99.90
2018-07-12T00:06:17.974Z,99.90
2018-07-12T00:08:45.311Z,99.90
2018-07-12T00:11:12.659Z,99.90
2018-07-12T00:13:39.988Z,99.90
2018-07-12T00:16:07.351Z,99.90
2018-07-12T00:18:34.682Z,99.90
2018-07-12T00:21:02.034Z,99.90
2018-07-12T00:23:29.365Z,99.90
2018-07-12T00:25:56.713Z,99.90
2018-07-12T00:28:24.037Z,99.90
2018-07-12T00:30:51.363Z,99.90
2018-07-12T00:33:18.705Z,99.90
2018-07-12T00:35:46.031Z,99.90
2018-07-12T00:38:13.384Z,99.90
2018-07-12T00:40:40.718Z,99.90
2018-07-12T00:43:08.074Z,99.90
2018-07-12T00:45:35.418Z,99.90
2018-07-12T00:48:02.774Z,99.90
2018-07-12T00:50:30.106Z,99.90
2018-07-12T00:52:57.452Z,99.90
2018-07-12T00:55:24.785Z,99.90
2018-07-12T00:57:52.140Z,99.90
2018-07-12T01:00:19.469Z,99.90
2018-07-12T01:02:46.829Z,99.90
2018-07-12T01:05:14.161Z,99.90
2018-07-12T01:07:41.513Z,99.90
2018-07-12T01:10:08.829Z,99.90
2018-07-12T01:12:36.164Z,99.90
2018-07-12T01:15:03.498Z,99.90
2018-07-12T01:17:30.838Z,99.90
2018-07-12T01:19:58.157Z,99.90
2018-07-12T01:22:25.711Z,99.90
2018-07-12T01:24:53.056Z,99.90
2018-07-12T01:27:20.382Z,99.90
2018-07-12T01:29:47.717Z,99.90
2018-07-12T01:32:15.025Z,99.90
2018-07-12T01:34:42.366Z,99.90
2018-07-12T01:37:09.680Z,99.90
2018-07-12T01:39:37.013Z,99.90
2018-07-12T01:42:04.324Z,99.90
2018-07-12T01:44:31.653Z,99.90
2018-07-12T01:46:58.969Z,99.90
2018-07-12T01:49:26.302Z,99.90
2018-07-12T01:51:53.613Z,99.90
2018-07-12T01:54:20.958Z,99.90
2018-07-12T01:56:48.283Z,99.90
2018-07-12T01:59:15.625Z,99.90
2018-07-12T02:01:42.936Z,99.90
2018-07-12T02:04:10.281Z,99.90
2018-07-12T02:06:37.609Z,99.90
2018-07-12T02:09:05.541Z,99.90
2018-07-12T02:11:32.892Z,99.90
2018-07-12T02:14:00.292Z,99.90
2018-07-12T02:16:27.606Z,99.90
2018-07-12T02:18:54.945Z,99.90
2018-07-12T02:21:22.281Z,99.90
2018-07-12T02:23:49.599Z,99.90
2018-07-12T02:26:16.930Z,99.90
2018-07-12T02:28:44.245Z,99.90
2018-07-12T02:31:11.582Z,99.90
2018-07-12T02:33:38.897Z,99.90
2018-07-12T02:36:06.292Z,99.90
2018-07-12T02:43:28.789Z,99.90
2018-07-12T02:45:56.133Z,99.90
2018-07-12T02:48:23.466Z,99.90
2018-07-12T02:50:50.808Z,99.90
2018-07-12T02:53:18.112Z,99.90
2018-07-12T02:55:45.449Z,99.90
2018-07-12T02:58:12.746Z,99.90
2018-07-12T03:00:40.110Z,99.90
2018-07-12T03:03:07.413Z,99.90
2018-07-12T03:05:34.744Z,99.90
2018-07-12T03:08:02.094Z,99.90
2018-07-12T03:10:29.422Z,99.90
2018-07-12T03:12:56.742Z,99.90
2018-07-12T03:15:24.118Z,99.90
2018-07-12T03:17:51.430Z,99.90
2018-07-12T03:20:18.766Z,99.90
2018-07-12T03:22:46.094Z,99.90
2018-07-12T03:25:13.406Z,99.90
2018-07-12T03:27:40.744Z,99.90
2018-07-12T03:30:08.059Z,99.90
2018-07-12T03:32:35.398Z,99.90
2018-07-12T03:35:02.713Z,99.90
2018-07-12T03:37:30.050Z,99.90
2018-07-12T03:42:24.963Z,99.90
2018-07-12T03:44:52.282Z,99.90
2018-07-12T03:47:19.728Z,99.90
2018-07-12T03:49:47.055Z,99.90
2018-07-12T03:52:14.387Z,99.90
2018-07-12T03:57:09.309Z,99.90
2018-07-12T03:59:36.625Z,99.90
2018-07-12T04:02:04.114Z,99.90
2018-07-12T04:04:31.422Z,99.90
2018-07-12T04:06:58.773Z,99.90
2018-07-12T04:09:26.099Z,99.90
2018-07-12T04:11:53.424Z,99.90
2018-07-12T04:14:20.768Z,99.90
2018-07-12T04:16:48.096Z,99.90
2018-07-12T04:19:15.445Z,99.90
2018-07-12T04:21:42.761Z,99.90
2018-07-12T04:24:10.102Z,99.90
2018-07-12T04:26:37.419Z,99.90
2018-07-12T04:29:04.765Z,99.90
2018-07-12T04:31:32.069Z,99.90
2018-07-12T04:33:59.422Z,99.90
2018-07-12T04:36:26.736Z,99.90
2018-07-12T04:38:54.069Z,99.90
2018-07-12T04:41:21.381Z,99.90
2018-07-12T04:43:49.151Z,99.90
2018-07-12T04:46:16.466Z,99.90
2018-07-12T04:48:43.812Z,99.90
2018-07-12T04:51:11.153Z,99.90
2018-07-12T04:53:38.494Z,99.90
2018-07-12T04:56:05.813Z,99.90
2018-07-12T04:58:33.158Z,99.90
2018-07-12T05:01:00.485Z,99.90
2018-07-12T05:03:27.806Z,99.90
2018-07-12T05:05:55.131Z,99.90
2018-07-12T05:08:22.450Z,99.90
2018-07-12T05:10:49.878Z,99.90
2018-07-12T05:13:17.189Z,99.90
2018-07-12T05:15:44.541Z,99.90
2018-07-12T05:18:11.859Z,99.90
2018-07-12T05:20:39.942Z,99.90
2018-07-12T05:23:07.304Z,99.90
2018-07-12T05:28:02.212Z,99.90
2018-07-12T05:30:29.554Z,99.90
2018-07-12T05:32:56.866Z,99.90
2018-07-12T05:35:25.414Z,99.90
2018-07-12T05:37:53.843Z,99.90
2018-07-12T05:40:22.309Z,99.90
2018-07-12T05:42:50.755Z,99.90
2018-07-12T05:45:19.244Z,99.90
2018-07-12T05:47:47.706Z,99.90
2018-07-12T05:50:16.149Z,99.90
2018-07-12T05:52:44.592Z,99.90
2018-07-12T05:55:13.034Z,99.90
2018-07-12T06:00:09.681Z,99.90
2018-07-12T06:02:38.154Z,99.90
2018-07-12T06:05:07.214Z,99.90
2018-07-12T06:07:35.693Z,99.90
2018-07-12T06:10:04.174Z,99.90
2018-07-12T06:12:32.646Z,99.90
2018-07-12T06:15:01.102Z,99.90
2018-07-12T06:17:29.585Z,99.90
2018-07-12T06:19:58.038Z,99.90
2018-07-12T06:22:26.538Z,99.90
2018-07-12T06:24:54.962Z,99.90
2018-07-12T06:27:23.441Z,99.90
2018-07-12T06:29:51.881Z,99.90
2018-07-12T06:32:20.345Z,99.90
2018-07-12T06:37:16.980Z,99.90
2018-07-12T06:39:45.346Z,99.90
2018-07-12T06:42:13.793Z,99.90
2018-07-12T06:44:42.247Z,99.90
2018-07-12T06:47:10.689Z,99.90
2018-07-12T06:49:39.137Z,99.90
2018-07-12T06:52:07.642Z,99.90
2018-07-12T06:54:36.090Z,99.90
2018-07-12T06:57:04.604Z,99.90
2018-07-12T06:59:33.062Z,99.90
2018-07-12T07:02:01.504Z,99.90
2018-07-12T07:04:29.961Z,99.90
2018-07-12T07:06:58.414Z,99.90
2018-07-12T07:09:26.873Z,99.90
2018-07-12T07:11:55.349Z,99.90
2018-07-12T07:14:23.831Z,99.90
2018-07-12T07:16:52.291Z,99.90
2018-07-12T07:19:20.729Z,99.90
2018-07-12T07:21:49.186Z,99.90
2018-07-12T07:24:17.694Z,99.90
2018-07-12T07:26:46.158Z,99.90
2018-07-12T07:29:14.615Z,99.90
2018-07-12T07:31:43.042Z,99.90
2018-07-12T07:34:11.522Z,99.90
2018-07-12T07:36:39.950Z,99.90
2018-07-12T07:39:09.130Z,99.90
2018-07-12T07:41:37.542Z,99.90
2018-07-12T07:44:06.082Z,99.90
2018-07-12T07:46:34.500Z,99.90
2018-07-12T07:49:02.969Z,99.90
2018-07-12T07:51:31.403Z,99.90
2018-07-12T07:53:59.866Z,99.90
2018-07-12T07:56:28.298Z,99.90
2018-07-12T07:58:56.734Z,99.90
2018-07-12T08:01:25.200Z,99.90
2018-07-12T08:03:53.653Z,99.90
2018-07-12T08:06:22.209Z,99.90
2018-07-12T08:08:50.618Z,99.90
2018-07-12T08:11:19.086Z,99.90
2018-07-12T08:13:47.548Z,99.90
2018-07-12T08:16:16.073Z,99.90
2018-07-12T08:18:44.454Z,99.90
2018-07-12T08:21:14.733Z,99.90
2018-07-12T08:23:44.309Z,99.90
2018-07-12T08:26:12.774Z,99.90
2018-07-12T08:28:41.226Z,99.90
2018-07-12T08:31:09.740Z,99.90
2018-07-12T08:33:38.150Z,99.90
2018-07-12T08:36:06.719Z,99.90
2018-07-12T08:38:35.126Z,99.90
2018-07-12T08:41:03.635Z,99.90
2018-07-12T08:43:32.117Z,99.90
2018-07-12T08:46:00.585Z,99.90
2018-07-12T08:48:29.137Z,99.90
2018-07-12T08:50:57.535Z,99.90
2018-07-12T08:53:25.987Z,99.90
2018-07-12T08:58:22.567Z,99.90
2018-07-12T09:00:51.026Z,99.90
2018-07-12T09:03:19.465Z,99.90
2018-07-12T09:05:47.935Z,99.90
2018-07-12T09:08:16.382Z,99.90
2018-07-12T09:10:44.854Z,99.90
2018-07-12T09:13:13.287Z,99.90
2018-07-12T09:15:41.818Z,99.90
2018-07-12T09:18:10.238Z,99.90
2018-07-12T09:20:38.688Z,99.90
2018-07-12T09:23:07.183Z,99.90
2018-07-12T09:25:35.873Z,99.90
2018-07-12T09:28:04.319Z,99.90
2018-07-12T09:30:32.761Z,99.90
2018-07-12T09:33:01.193Z,99.90
2018-07-12T09:35:29.617Z,99.90
2018-07-12T09:37:58.077Z,99.90
2018-07-12T09:40:26.518Z,99.90
2018-07-12T09:42:55.016Z,99.90
2018-07-12T09:47:52.982Z,99.90
2018-07-12T09:50:23.577Z,99.90
2018-07-12T09:52:52.048Z,99.90
2018-07-12T09:55:20.485Z,99.90
2018-07-12T09:58:00.277Z,99.90
2018-07-12T10:00:34.185Z,99.90
2018-07-12T10:03:08.041Z,99.90
2018-07-12T10:05:41.743Z,99.90
2018-07-12T10:09:17.095Z,99.90
2018-07-12T10:11:50.953Z,99.90
2018-07-12T10:14:24.689Z,99.90
2018-07-12T10:17:12.361Z,99.90
2018-07-12T10:19:41.997Z,99.90
2018-07-12T10:22:11.221Z,99.90
2018-07-12T10:24:39.661Z,99.90
2018-07-12T10:27:08.230Z,99.90
2018-07-12T10:29:36.651Z,99.90
2018-07-12T10:32:05.119Z,99.90
2018-07-12T10:37:01.683Z,99.50
2018-07-12T10:39:30.152Z,99.90
2018-07-12T10:44:26.737Z,97.90
2018-07-12T10:46:55.192Z,98.30
2018-07-12T10:51:51.784Z,99.90
2018-07-12T10:54:20.299Z,99.90
2018-07-12T10:56:48.751Z,99.90
2018-07-12T10:59:17.206Z,99.90
2018-07-12T11:01:45.664Z,99.90
2018-07-12T11:06:42.301Z,99.90
2018-07-12T11:09:10.791Z,99.90
2018-07-12T11:14:07.354Z,99.90
2018-07-12T11:16:35.773Z,99.90
2018-07-12T11:19:04.182Z,99.90
2018-07-12T11:21:32.646Z,99.90
2018-07-12T11:24:01.094Z,99.90
2018-07-12T11:26:29.559Z,99.90
2018-07-12T11:28:57.985Z,99.90
2018-07-12T11:31:26.434Z,99.90
2018-07-12T11:33:54.862Z,99.90
2018-07-12T11:36:23.318Z,99.90
2018-07-12T11:38:51.741Z,99.90
2018-07-12T11:41:20.182Z,99.90
2018-07-12T11:43:49.470Z,99.90
2018-07-12T11:46:17.937Z,95.20
2018-07-12T11:48:46.564Z,94.60
2018-07-12T11:51:15.026Z,96.40
2018-07-12T11:53:43.472Z,93.10
2018-07-12T11:56:11.947Z,94.30
2018-07-12T11:58:40.369Z,90.40
2018-07-12T12:01:08.817Z,83.30
2018-07-12T12:03:37.238Z,83.60
2018-07-12T12:06:05.721Z,91.90
2018-07-12T12:08:34.164Z,94.00
2018-07-12T12:11:02.634Z,95.90
2018-07-12T12:13:31.109Z,97.20
2018-07-12T12:15:59.558Z,96.30
2018-07-12T12:20:56.113Z,96.50
2018-07-12T12:28:20.886Z,96.30
2018-07-12T12:30:49.365Z,95.40
2018-07-12T12:33:17.846Z,93.00
2018-07-12T12:35:46.313Z,92.50
2018-07-12T12:38:14.777Z,92.30
2018-07-12T12:40:43.241Z,94.40
2018-07-12T12:43:11.777Z,95.40
2018-07-12T12:45:40.238Z,95.70
2018-07-12T12:48:08.689Z,93.50
2018-07-12T12:53:05.261Z,93.20
2018-07-12T12:55:33.697Z,93.00
2018-07-12T12:58:02.143Z,93.40
2018-07-12T13:00:30.552Z,94.80
2018-07-12T13:02:58.993Z,95.60
2018-07-12T13:05:27.401Z,95.70
2018-07-12T13:07:55.892Z,96.70
2018-07-12T13:10:24.330Z,95.90
2018-07-12T13:12:52.758Z,97.90
2018-07-12T13:15:21.239Z,98.20
2018-07-12T13:17:49.670Z,97.30
2018-07-12T13:20:18.126Z,96.20
2018-07-12T13:22:47.233Z,95.60
2018-07-12T13:25:15.674Z,95.40
2018-07-12T13:27:44.169Z,95.40
2018-07-12T13:30:12.573Z,91.90
2018-07-12T13:32:41.017Z,90.70
2018-07-12T13:37:37.594Z,80.80
2018-07-12T13:40:06.033Z,75.20
2018-07-12T13:42:34.846Z,82.50
2018-07-12T13:45:03.321Z,86.60
2018-07-12T13:49:59.887Z,92.20
2018-07-12T13:52:28.322Z,91.30
2018-07-12T13:54:56.805Z,82.50
2018-07-12T13:57:25.243Z,83.40
2018-07-12T13:59:53.701Z,87.40
2018-07-12T14:02:22.124Z,88.00
2018-07-12T14:04:50.612Z,88.80
2018-07-12T14:07:19.000Z,90.20
2018-07-12T14:09:47.433Z,90.30
2018-07-12T14:12:15.866Z,88.50
2018-07-12T14:14:44.291Z,87.70
2018-07-12T14:17:12.727Z,89.20
2018-07-12T14:19:41.182Z,92.30
2018-07-12T14:22:09.626Z,93.50
2018-07-12T14:24:38.077Z,94.80
2018-07-12T14:29:34.649Z,95.70
2018-07-12T14:32:03.098Z,94.10
2018-07-12T14:34:31.524Z,93.60
2018-07-12T14:36:59.961Z,92.20
2018-07-12T14:39:28.429Z,79.30
2018-07-12T14:41:56.882Z,73.20
2018-07-12T14:44:25.301Z,67.30
2018-07-12T14:46:53.740Z,54.90
2018-07-12T14:49:22.189Z,59.50
2018-07-12T14:51:50.679Z,69.30
2018-07-12T14:54:19.096Z,66.40
2018-07-12T14:56:47.537Z,65.80
2018-07-12T14:59:15.973Z,70.50
2018-07-12T15:01:44.431Z,65.80
2018-07-12T15:04:12.933Z,63.30
2018-07-12T15:06:41.481Z,61.40
2018-07-12T15:09:10.134Z,63.00
2018-07-12T15:11:38.670Z,61.90
2018-07-12T15:14:07.280Z,61.70
2018-07-12T15:16:35.751Z,57.80
2018-07-12T15:19:04.463Z,54.70
2018-07-12T15:21:33.145Z,55.50
2018-07-12T15:24:01.628Z,56.10
2018-07-12T15:26:30.085Z,55.10
2018-07-12T15:31:26.720Z,51.10
2018-07-12T15:33:55.208Z,51.00
2018-07-12T15:36:23.657Z,50.50
2018-07-12T15:38:52.118Z,50.00
2018-07-12T15:41:20.567Z,52.20
2018-07-12T15:46:17.164Z,52.50
2018-07-12T15:48:45.677Z,55.00
2018-07-12T15:51:14.127Z,58.30
2018-07-12T15:53:42.599Z,62.70
2018-07-12T15:56:11.049Z,66.20
2018-07-12T15:58:39.510Z,72.90
2018-07-12T16:01:07.949Z,76.60
2018-07-12T16:03:36.437Z,78.20
2018-07-12T16:06:04.938Z,81.00
2018-07-12T16:08:33.431Z,82.10
2018-07-12T16:13:30.079Z,87.30
2018-07-12T16:15:58.501Z,87.90
2018-07-12T16:18:26.943Z,90.20
2018-07-12T16:20:55.398Z,89.70
2018-07-12T16:23:23.837Z,90.50
2018-07-12T16:25:52.293Z,88.80
2018-07-12T16:28:20.763Z,89.30
2018-07-12T16:30:49.205Z,89.10
2018-07-12T16:33:17.613Z,90.60
2018-07-12T16:35:46.074Z,91.80
2018-07-12T16:38:14.522Z,91.40
2018-07-12T16:40:42.993Z,92.30
2018-07-12T16:43:11.443Z,92.90
2018-07-12T16:45:39.889Z,92.90
2018-07-12T16:48:08.327Z,93.90
2018-07-12T16:50:36.812Z,95.10
2018-07-12T16:53:05.644Z,95.20
2018-07-12T16:55:34.101Z,94.50
2018-07-12T16:58:02.534Z,94.00
2018-07-12T17:00:30.986Z,94.60
2018-07-12T17:02:59.442Z,95.20
2018-07-12T17:05:27.919Z,96.30
2018-07-12T17:07:56.342Z,96.00
2018-07-12T17:10:24.798Z,96.40
2018-07-12T17:12:53.252Z,95.70
2018-07-12T17:15:21.683Z,95.70
2018-07-12T17:17:50.145Z,96.60
2018-07-12T17:20:18.585Z,97.80
2018-07-12T17:22:47.075Z,98.40
2018-07-12T17:25:15.493Z,96.70
2018-07-12T17:27:43.971Z,97.20
2018-07-12T17:30:12.458Z,98.90
2018-07-12T17:32:40.920Z,99.30
2018-07-12T17:35:09.385Z,99.10
2018-07-12T17:37:37.830Z,98.60
2018-07-12T17:40:06.346Z,98.50
2018-07-12T17:42:34.900Z,99.20
2018-07-12T17:45:04.243Z,98.50
2018-07-12T17:47:37.841Z,99.70
2018-07-12T17:52:34.524Z,99.90
2018-07-12T17:55:02.954Z,99.90
2018-07-12T17:57:31.407Z,99.90
2018-07-12T17:59:59.802Z,99.90
2018-07-12T18:02:28.233Z,99.90
2018-07-12T18:04:56.637Z,99.90
2018-07-12T18:07:25.070Z,99.90
2018-07-12T18:09:53.534Z,99.90
2018-07-12T18:12:22.030Z,99.90
2018-07-12T18:14:50.454Z,99.90
2018-07-12T18:19:46.998Z,99.90
2018-07-12T18:22:30.041Z,99.90
2018-07-12T18:24:58.802Z,99.90
2018-07-12T18:27:30.443Z,99.90
2018-07-12T18:29:59.856Z,99.90
2018-07-12T18:32:28.943Z,99.90
2018-07-12T18:34:57.409Z,99.90
2018-07-12T18:37:25.873Z,99.90
2018-07-12T18:39:54.399Z,99.90
2018-07-12T18:42:22.849Z,99.90
2018-07-12T18:44:51.325Z,99.90
2018-07-12T18:47:19.753Z,99.90
2018-07-12T18:49:48.230Z,99.90
2018-07-12T18:52:16.684Z,99.90
2018-07-12T18:54:45.141Z,99.90
2018-07-12T18:57:13.651Z,99.90
2018-07-12T18:59:42.132Z,99.90
2018-07-12T19:02:11.345Z,99.90
2018-07-12T19:07:07.958Z,99.90
2018-07-12T19:09:36.442Z,99.90
2018-07-12T19:12:04.899Z,99.90
2018-07-12T19:14:33.381Z,99.90
2018-07-12T19:17:01.818Z,99.90
2018-07-12T19:24:26.585Z,99.90
2018-07-12T19:26:55.034Z,99.90
2018-07-12T19:29:23.494Z,99.90
2018-07-12T19:34:20.095Z,99.90
2018-07-12T19:36:48.556Z,99.90
2018-07-12T19:39:17.036Z,99.90
2018-07-12T19:41:45.536Z,99.90
2018-07-12T19:44:13.977Z,99.90
2018-07-12T19:46:42.441Z,99.90
2018-07-12T19:49:10.859Z,99.90
2018-07-12T19:51:39.304Z,99.90
2018-07-12T19:56:38.007Z,99.90
2018-07-12T20:01:34.566Z,99.90
2018-07-12T20:06:31.141Z,99.90
2018-07-12T20:08:59.587Z,99.90
2018-07-12T20:11:28.069Z,99.90
2018-07-12T20:13:56.492Z,99.90
2018-07-12T20:16:25.003Z,99.90
2018-07-12T20:18:53.424Z,99.90
2018-07-12T20:21:21.930Z,99.90
2018-07-12T20:23:50.366Z,99.90
2018-07-12T20:26:19.694Z,99.90
2018-07-12T20:28:48.125Z,99.90
2018-07-12T20:31:16.675Z,99.90
2018-07-12T20:33:45.022Z,99.90
2018-07-12T20:36:13.474Z,99.90
2018-07-12T20:38:41.957Z,99.90
2018-07-12T20:41:10.439Z,99.90
2018-07-12T20:43:38.873Z,99.90
2018-07-12T20:46:07.337Z,99.90
2018-07-12T20:48:35.791Z,99.90
2018-07-12T20:53:32.418Z,99.90
2018-07-12T20:56:00.875Z,99.90
2018-07-12T20:58:29.356Z,99.90
2018-07-12T21:00:57.803Z,99.90
2018-07-12T21:03:26.258Z,99.90
2018-07-12T21:08:22.889Z,99.90
2018-07-12T21:10:51.355Z,99.90
2018-07-12T21:13:19.870Z,99.90
2018-07-12T21:15:48.322Z,99.90
2018-07-12T21:18:16.850Z,99.90
2018-07-12T21:20:45.301Z,99.90
2018-07-12T21:23:13.794Z,99.90
2018-07-12T21:25:42.242Z,99.90
2018-07-12T21:28:10.721Z,99.90
2018-07-12T21:30:39.156Z,99.90
2018-07-12T21:33:07.688Z,99.90
2018-07-12T21:35:36.169Z,99.90
2018-07-12T21:38:04.778Z,99.90
2018-07-12T21:45:29.735Z,99.90
2018-07-12T21:47:58.204Z,99.90
2018-07-12T21:50:26.670Z,99.90
2018-07-12T21:52:55.125Z,99.90
2018-07-12T21:55:23.581Z,99.90
2018-07-12T21:57:52.037Z,99.90
2018-07-12T22:00:20.485Z,99.90
2018-07-12T22:02:48.936Z,99.90
2018-07-12T22:08:16.732Z,99.90
2018-07-12T22:10:46.290Z,99.90
2018-07-12T22:13:15.258Z,99.90
2018-07-12T22:18:11.918Z,99.90
2018-07-12T22:20:40.534Z,99.90
2018-07-12T22:23:09.021Z,99.90
2018-07-12T22:25:37.633Z,99.90
2018-07-12T22:28:06.173Z,99.90
2018-07-12T22:30:34.685Z,99.90
2018-07-12T22:33:03.817Z,99.90
2018-07-12T22:38:01.594Z,99.90
2018-07-12T22:42:58.669Z,99.90
2018-07-12T22:45:27.088Z,99.90
2018-07-12T22:47:55.723Z,99.90
2018-07-12T22:50:24.173Z,99.90
2018-07-12T22:52:52.669Z,99.90
2018-07-12T22:55:21.170Z,99.90
2018-07-12T22:57:49.621Z,99.90
2018-07-12T23:00:18.055Z,99.90
2018-07-12T23:02:47.514Z,99.90
2018-07-12T23:05:15.963Z,99.90
2018-07-12T23:07:44.465Z,99.90
2018-07-12T23:10:12.924Z,99.90
2018-07-12T23:12:41.381Z,99.90
2018-07-12T23:15:09.854Z,99.90
2018-07-12T23:17:38.326Z,99.90
2018-07-12T23:20:06.836Z,99.90
2018-07-12T23:22:35.342Z,99.90
2018-07-12T23:25:03.817Z,99.90
2018-07-12T23:27:32.325Z,99.90
2018-07-12T23:30:00.762Z,99.90
2018-07-12T23:32:29.233Z,99.90
2018-07-12T23:34:57.694Z,99.90
2018-07-12T23:37:26.157Z,99.90
2018-07-12T23:39:54.601Z,99.90
2018-07-12T23:42:23.053Z,99.90
2018-07-12T23:44:51.492Z,99.90
2018-07-12T23:47:19.937Z,99.90
2018-07-12T23:49:48.381Z,99.90
2018-07-12T23:52:16.846Z,99.90
2018-07-12T23:54:45.309Z,99.90
2018-07-12T23:59:42.305Z,99.90
